sensor_id;sensor_type;location;lat;lon;timestamp;P1;durP1;ratioP1;P2;durP2;ratioP2
38779;SDS011;29273;49.962;9.768;2022-12-05T00:00:14;5.38;;;4.03;;
38779;SDS011;29273;49.962;9.768;2022-12-05T00:02:40;5.38;;;4.18;;
38779;SDS011;29273;49.962;9.768;2022-12-05T00:05:05;5.35;;;4.07;;
38779;SDS011;29273;49.962;9.768;2022-12-05T00:07:31;6.03;;;4.10;;
38779;SDS011;29273;49.962;9.768;2022-12-05T00:09:57;5.70;;;4.32;;
38779;SDS011;29273;49.962;9.768;2022-12-05T00:12:23;4.95;;;4.05;;
38779;SDS011;29273;49.962;9.768;2022-12-05T00:14:48;5.57;;;4.10;;
38779;SDS011;29273;49.962;9.768;2022-12-05T00:17:13;5.25;;;4.38;;
38779;SDS011;29273;49.962;9.768;2022-12-05T00:19:39;5.65;;;4.35;;
38779;SDS011;29273;49.962;9.768;2022-12-05T00:22:04;5.47;;;4.50;;
38779;SDS011;29273;49.962;9.768;2022-12-05T00:24:30;5.10;;;4.40;;
38779;SDS011;29273;49.962;9.768;2022-12-05T00:26:55;5.47;;;4.07;;
38779;SDS011;29273;49.962;9.768;2022-12-05T00:29:21;5.90;;;4.15;;
38779;SDS011;29273;49.962;9.768;2022-12-05T00:31:46;5.43;;;4.25;;
38779;SDS011;29273;49.962;9.768;2022-12-05T00:34:12;6.68;;;4.80;;
38779;SDS011;29273;49.962;9.768;2022-12-05T00:36:37;6.05;;;4.30;;
38779;SDS011;29273;49.962;9.768;2022-12-05T00:39:05;6.07;;;4.68;;
38779;SDS011;29273;49.962;9.768;2022-12-05T00:41:32;5.93;;;4.22;;
38779;SDS011;29273;49.962;9.768;2022-12-05T00:43:58;6.28;;;4.50;;
38779;SDS011;29273;49.962;9.768;2022-12-05T00:46:26;6.05;;;4.45;;
38779;SDS011;29273;49.962;9.768;2022-12-05T00:48:53;6.22;;;4.30;;
38779;SDS011;29273;49.962;9.768;2022-12-05T00:51:24;5.03;;;4.05;;
38779;SDS011;29273;49.962;9.768;2022-12-05T00:53:52;5.43;;;3.97;;
38779;SDS011;29273;49.962;9.768;2022-12-05T00:56:20;5.75;;;4.05;;
38779;SDS011;29273;49.962;9.768;2022-12-05T00:58:47;5.53;;;4.68;;
38779;SDS011;29273;49.962;9.768;2022-12-05T01:01:16;5.80;;;4.53;;
38779;SDS011;29273;49.962;9.768;2022-12-05T01:03:44;5.60;;;4.43;;
38779;SDS011;29273;49.962;9.768;2022-12-05T01:06:11;5.75;;;4.38;;
38779;SDS011;29273;49.962;9.768;2022-12-05T01:08:37;6.63;;;4.50;;
38779;SDS011;29273;49.962;9.768;2022-12-05T01:11:03;6.10;;;4.57;;
38779;SDS011;29273;49.962;9.768;2022-12-05T01:13:31;5.50;;;4.10;;
38779;SDS011;29273;49.962;9.768;2022-12-05T01:15:57;5.78;;;4.18;;
38779;SDS011;29273;49.962;9.768;2022-12-05T01:18:23;5.57;;;4.30;;
38779;SDS011;29273;49.962;9.768;2022-12-05T01:20:50;5.63;;;4.35;;
38779;SDS011;29273;49.962;9.768;2022-12-05T01:23:16;6.57;;;4.38;;
38779;SDS011;29273;49.962;9.768;2022-12-05T01:25:42;4.65;;;4.00;;
38779;SDS011;29273;49.962;9.768;2022-12-05T01:28:10;5.80;;;4.40;;
38779;SDS011;29273;49.962;9.768;2022-12-05T01:30:40;5.18;;;4.35;;
38779;SDS011;29273;49.962;9.768;2022-12-05T01:33:08;5.55;;;4.15;;
38779;SDS011;29273;49.962;9.768;2022-12-05T01:35:35;6.40;;;4.40;;
38779;SDS011;29273;49.962;9.768;2022-12-05T01:38:02;7.18;;;4.93;;
38779;SDS011;29273;49.962;9.768;2022-12-05T01:40:29;7.30;;;5.40;;
38779;SDS011;29273;49.962;9.768;2022-12-05T01:42:55;6.75;;;4.97;;
38779;SDS011;29273;49.962;9.768;2022-12-05T01:45:31;6.75;;;5.00;;
38779;SDS011;29273;49.962;9.768;2022-12-05T01:47:59;6.93;;;4.88;;
38779;SDS011;29273;49.962;9.768;2022-12-05T01:50:29;6.70;;;4.80;;
38779;SDS011;29273;49.962;9.768;2022-12-05T01:52:54;6.65;;;5.00;;
38779;SDS011;29273;49.962;9.768;2022-12-05T01:55:20;5.90;;;4.50;;
38779;SDS011;29273;49.962;9.768;2022-12-05T01:57:46;6.20;;;4.72;;
38779;SDS011;29273;49.962;9.768;2022-12-05T02:00:15;6.28;;;5.03;;
38779;SDS011;29273;49.962;9.768;2022-12-05T02:02:47;6.25;;;4.75;;
38779;SDS011;29273;49.962;9.768;2022-12-05T02:05:18;7.82;;;5.47;;
38779;SDS011;29273;49.962;9.768;2022-12-05T02:07:46;6.72;;;5.15;;
38779;SDS011;29273;49.962;9.768;2022-12-05T02:10:12;5.80;;;4.47;;
38779;SDS011;29273;49.962;9.768;2022-12-05T02:12:38;6.13;;;4.57;;
38779;SDS011;29273;49.962;9.768;2022-12-05T02:15:51;6.45;;;4.85;;
38779;SDS011;29273;49.962;9.768;2022-12-05T02:20:37;6.50;;;4.63;;
38779;SDS011;29273;49.962;9.768;2022-12-05T02:31:16;6.00;;;4.63;;
38779;SDS011;29273;49.962;9.768;2022-12-05T02:34:15;6.30;;;4.65;;
38779;SDS011;29273;49.962;9.768;2022-12-05T02:45:26;5.55;;;4.00;;
38779;SDS011;29273;49.962;9.768;2022-12-05T02:47:55;7.30;;;4.88;;
38779;SDS011;29273;49.962;9.768;2022-12-05T02:50:23;5.18;;;3.97;;
38779;SDS011;29273;49.962;9.768;2022-12-05T02:52:53;6.03;;;4.70;;
38779;SDS011;29273;49.962;9.768;2022-12-05T02:55:22;5.40;;;4.35;;
38779;SDS011;29273;49.962;9.768;2022-12-05T02:57:52;6.40;;;4.72;;
38779;SDS011;29273;49.962;9.768;2022-12-05T03:00:20;5.68;;;4.57;;
38779;SDS011;29273;49.962;9.768;2022-12-05T03:02:46;6.90;;;4.75;;
38779;SDS011;29273;49.962;9.768;2022-12-05T03:05:16;5.80;;;4.30;;
38779;SDS011;29273;49.962;9.768;2022-12-05T03:07:47;5.60;;;4.20;;
38779;SDS011;29273;49.962;9.768;2022-12-05T03:10:16;5.85;;;4.13;;
38779;SDS011;29273;49.962;9.768;2022-12-05T03:12:50;6.35;;;4.70;;
38779;SDS011;29273;49.962;9.768;2022-12-05T03:15:21;6.75;;;4.72;;
38779;SDS011;29273;49.962;9.768;2022-12-05T03:17:52;5.15;;;4.55;;
38779;SDS011;29273;49.962;9.768;2022-12-05T03:20:31;6.05;;;4.60;;
38779;SDS011;29273;49.962;9.768;2022-12-05T03:23:04;5.63;;;4.25;;
38779;SDS011;29273;49.962;9.768;2022-12-05T03:25:34;5.95;;;4.40;;
38779;SDS011;29273;49.962;9.768;2022-12-05T03:28:13;5.55;;;4.50;;
38779;SDS011;29273;49.962;9.768;2022-12-05T03:30:44;6.32;;;4.55;;
38779;SDS011;29273;49.962;9.768;2022-12-05T03:33:19;5.60;;;4.70;;
38779;SDS011;29273;49.962;9.768;2022-12-05T03:46:02;5.00;;;4.00;;
38779;SDS011;29273;49.962;9.768;2022-12-05T03:48:33;6.45;;;4.43;;
38779;SDS011;29273;49.962;9.768;2022-12-05T03:51:05;6.13;;;4.53;;
38779;SDS011;29273;49.962;9.768;2022-12-05T03:53:37;4.65;;;3.83;;
38779;SDS011;29273;49.962;9.768;2022-12-05T03:56:11;5.57;;;4.18;;
38779;SDS011;29273;49.962;9.768;2022-12-05T04:01:40;6.07;;;4.38;;
38779;SDS011;29273;49.962;9.768;2022-12-05T04:04:10;5.40;;;4.45;;
38779;SDS011;29273;49.962;9.768;2022-12-05T04:06:43;6.43;;;4.75;;
38779;SDS011;29273;49.962;9.768;2022-12-05T04:09:17;5.40;;;4.45;;
38779;SDS011;29273;49.962;9.768;2022-12-05T04:11:50;5.63;;;4.30;;
38779;SDS011;29273;49.962;9.768;2022-12-05T04:14:23;5.28;;;4.25;;
38779;SDS011;29273;49.962;9.768;2022-12-05T04:17:15;5.88;;;4.60;;
38779;SDS011;29273;49.962;9.768;2022-12-05T04:19:44;6.10;;;4.30;;
38779;SDS011;29273;49.962;9.768;2022-12-05T04:22:33;7.43;;;4.90;;
38779;SDS011;29273;49.962;9.768;2022-12-05T04:25:00;5.43;;;4.43;;
38779;SDS011;29273;49.962;9.768;2022-12-05T04:28:08;6.97;;;5.13;;
38779;SDS011;29273;49.962;9.768;2022-12-05T04:33:23;5.45;;;4.25;;
38779;SDS011;29273;49.962;9.768;2022-12-05T04:35:53;6.00;;;4.35;;
38779;SDS011;29273;49.962;9.768;2022-12-05T04:38:32;7.05;;;4.80;;
38779;SDS011;29273;49.962;9.768;2022-12-05T04:41:06;6.20;;;4.63;;
38779;SDS011;29273;49.962;9.768;2022-12-05T04:43:38;5.88;;;4.40;;
38779;SDS011;29273;49.962;9.768;2022-12-05T04:46:06;6.75;;;4.55;;
38779;SDS011;29273;49.962;9.768;2022-12-05T04:48:36;7.03;;;4.85;;
38779;SDS011;29273;49.962;9.768;2022-12-05T04:51:08;8.43;;;5.20;;
38779;SDS011;29273;49.962;9.768;2022-12-05T04:53:40;7.93;;;5.00;;
38779;SDS011;29273;49.962;9.768;2022-12-05T04:56:07;8.13;;;5.82;;
38779;SDS011;29273;49.962;9.768;2022-12-05T04:58:34;7.25;;;4.93;;
38779;SDS011;29273;49.962;9.768;2022-12-05T05:03:49;7.03;;;4.97;;
38779;SDS011;29273;49.962;9.768;2022-12-05T05:06:18;8.25;;;4.50;;
38779;SDS011;29273;49.962;9.768;2022-12-05T05:08:51;6.70;;;4.88;;
38779;SDS011;29273;49.962;9.768;2022-12-05T05:11:20;6.10;;;4.35;;
38779;SDS011;29273;49.962;9.768;2022-12-05T05:13:50;8.02;;;5.03;;
38779;SDS011;29273;49.962;9.768;2022-12-05T05:16:17;6.35;;;4.68;;
38779;SDS011;29273;49.962;9.768;2022-12-05T05:18:46;7.85;;;5.00;;
38779;SDS011;29273;49.962;9.768;2022-12-05T05:21:23;6.43;;;4.55;;
38779;SDS011;29273;49.962;9.768;2022-12-05T05:23:50;7.00;;;5.03;;
38779;SDS011;29273;49.962;9.768;2022-12-05T05:26:16;7.50;;;5.25;;
38779;SDS011;29273;49.962;9.768;2022-12-05T05:28:42;8.30;;;4.95;;
38779;SDS011;29273;49.962;9.768;2022-12-05T05:31:09;6.88;;;5.10;;
38779;SDS011;29273;49.962;9.768;2022-12-05T05:33:35;6.90;;;5.10;;
38779;SDS011;29273;49.962;9.768;2022-12-05T05:36:04;7.10;;;4.90;;
38779;SDS011;29273;49.962;9.768;2022-12-05T05:38:35;6.90;;;4.93;;
38779;SDS011;29273;49.962;9.768;2022-12-05T05:41:02;7.72;;;5.38;;
38779;SDS011;29273;49.962;9.768;2022-12-05T05:43:28;7.18;;;5.07;;
38779;SDS011;29273;49.962;9.768;2022-12-05T05:45:53;5.97;;;4.22;;
38779;SDS011;29273;49.962;9.768;2022-12-05T05:48:19;6.97;;;4.93;;
38779;SDS011;29273;49.962;9.768;2022-12-05T05:50:44;6.35;;;4.55;;
38779;SDS011;29273;49.962;9.768;2022-12-05T05:53:09;6.43;;;4.60;;
38779;SDS011;29273;49.962;9.768;2022-12-05T05:55:38;6.68;;;5.20;;
38779;SDS011;29273;49.962;9.768;2022-12-05T05:58:07;5.32;;;3.92;;
38779;SDS011;29273;49.962;9.768;2022-12-05T06:00:33;5.90;;;4.10;;
38779;SDS011;29273;49.962;9.768;2022-12-05T06:02:58;5.68;;;4.03;;
38779;SDS011;29273;49.962;9.768;2022-12-05T06:05:24;7.43;;;4.95;;
38779;SDS011;29273;49.962;9.768;2022-12-05T06:07:51;6.05;;;3.97;;
38779;SDS011;29273;49.962;9.768;2022-12-05T06:10:16;7.25;;;4.63;;
38779;SDS011;29273;49.962;9.768;2022-12-05T06:12:42;6.05;;;4.47;;
38779;SDS011;29273;49.962;9.768;2022-12-05T06:15:08;8.82;;;4.82;;
38779;SDS011;29273;49.962;9.768;2022-12-05T06:17:33;6.03;;;4.38;;
38779;SDS011;29273;49.962;9.768;2022-12-05T06:19:59;6.72;;;4.55;;
38779;SDS011;29273;49.962;9.768;2022-12-05T06:22:24;6.18;;;4.20;;
38779;SDS011;29273;49.962;9.768;2022-12-05T06:24:50;6.13;;;4.57;;
38779;SDS011;29273;49.962;9.768;2022-12-05T06:27:15;5.88;;;4.30;;
38779;SDS011;29273;49.962;9.768;2022-12-05T06:29:41;6.63;;;4.75;;
38779;SDS011;29273;49.962;9.768;2022-12-05T06:32:06;7.43;;;5.05;;
38779;SDS011;29273;49.962;9.768;2022-12-05T06:34:32;9.02;;;5.90;;
38779;SDS011;29273;49.962;9.768;2022-12-05T06:36:57;10.23;;;5.63;;
38779;SDS011;29273;49.962;9.768;2022-12-05T06:39:24;8.15;;;5.40;;
38779;SDS011;29273;49.962;9.768;2022-12-05T06:41:49;7.47;;;5.22;;
38779;SDS011;29273;49.962;9.768;2022-12-05T06:44:15;7.32;;;5.15;;
38779;SDS011;29273;49.962;9.768;2022-12-05T06:46:41;7.22;;;4.78;;
38779;SDS011;29273;49.962;9.768;2022-12-05T06:49:07;8.50;;;5.22;;
38779;SDS011;29273;49.962;9.768;2022-12-05T06:51:34;6.55;;;4.55;;
38779;SDS011;29273;49.962;9.768;2022-12-05T06:54:00;7.03;;;4.72;;
38779;SDS011;29273;49.962;9.768;2022-12-05T06:56:25;7.13;;;4.72;;
38779;SDS011;29273;49.962;9.768;2022-12-05T06:58:51;6.50;;;4.82;;
38779;SDS011;29273;49.962;9.768;2022-12-05T07:01:18;6.13;;;4.45;;
38779;SDS011;29273;49.962;9.768;2022-12-05T07:04:10;6.00;;;4.20;;
38779;SDS011;29273;49.962;9.768;2022-12-05T07:06:48;6.80;;;4.40;;
38779;SDS011;29273;49.962;9.768;2022-12-05T07:09:14;6.10;;;4.07;;
38779;SDS011;29273;49.962;9.768;2022-12-05T07:11:40;8.43;;;4.70;;
38779;SDS011;29273;49.962;9.768;2022-12-05T07:14:06;6.15;;;4.32;;
38779;SDS011;29273;49.962;9.768;2022-12-05T07:16:33;6.20;;;4.25;;
38779;SDS011;29273;49.962;9.768;2022-12-05T07:18:59;5.75;;;4.00;;
38779;SDS011;29273;49.962;9.768;2022-12-05T07:21:24;5.43;;;4.15;;
38779;SDS011;29273;49.962;9.768;2022-12-05T07:23:50;5.65;;;3.70;;
38779;SDS011;29273;49.962;9.768;2022-12-05T07:26:20;5.50;;;3.95;;
38779;SDS011;29273;49.962;9.768;2022-12-05T07:28:47;6.85;;;4.65;;
38779;SDS011;29273;49.962;9.768;2022-12-05T07:31:15;6.00;;;4.50;;
38779;SDS011;29273;49.962;9.768;2022-12-05T07:33:42;5.45;;;4.03;;
38779;SDS011;29273;49.962;9.768;2022-12-05T07:36:12;6.07;;;4.35;;
38779;SDS011;29273;49.962;9.768;2022-12-05T07:38:40;6.18;;;4.53;;
38779;SDS011;29273;49.962;9.768;2022-12-05T07:41:06;6.50;;;4.22;;
38779;SDS011;29273;49.962;9.768;2022-12-05T07:43:33;5.85;;;4.28;;
38779;SDS011;29273;49.962;9.768;2022-12-05T07:46:03;6.43;;;4.22;;
38779;SDS011;29273;49.962;9.768;2022-12-05T07:48:30;6.07;;;4.47;;
38779;SDS011;29273;49.962;9.768;2022-12-05T07:51:00;7.15;;;4.32;;
38779;SDS011;29273;49.962;9.768;2022-12-05T07:53:26;5.97;;;4.15;;
38779;SDS011;29273;49.962;9.768;2022-12-05T07:55:52;6.15;;;4.25;;
38779;SDS011;29273;49.962;9.768;2022-12-05T07:58:18;5.82;;;4.20;;
38779;SDS011;29273;49.962;9.768;2022-12-05T08:00:43;5.43;;;4.38;;
38779;SDS011;29273;49.962;9.768;2022-12-05T08:03:09;6.18;;;3.90;;
38779;SDS011;29273;49.962;9.768;2022-12-05T08:05:34;5.50;;;4.30;;
38779;SDS011;29273;49.962;9.768;2022-12-05T08:08:00;6.00;;;4.47;;
38779;SDS011;29273;49.962;9.768;2022-12-05T08:10:25;8.65;;;4.45;;
38779;SDS011;29273;49.962;9.768;2022-12-05T08:12:50;6.00;;;4.20;;
38779;SDS011;29273;49.962;9.768;2022-12-05T08:15:16;5.93;;;4.38;;
38779;SDS011;29273;49.962;9.768;2022-12-05T08:17:42;6.00;;;4.47;;
38779;SDS011;29273;49.962;9.768;2022-12-05T08:20:07;5.82;;;4.35;;
38779;SDS011;29273;49.962;9.768;2022-12-05T08:22:33;8.05;;;4.85;;
38779;SDS011;29273;49.962;9.768;2022-12-05T08:24:59;6.38;;;4.57;;
38779;SDS011;29273;49.962;9.768;2022-12-05T08:27:24;6.90;;;4.32;;
38779;SDS011;29273;49.962;9.768;2022-12-05T08:29:50;7.00;;;5.30;;
38779;SDS011;29273;49.962;9.768;2022-12-05T08:32:15;7.78;;;5.50;;
38779;SDS011;29273;49.962;9.768;2022-12-05T08:34:40;6.72;;;4.78;;
38779;SDS011;29273;49.962;9.768;2022-12-05T08:37:06;5.88;;;4.57;;
38779;SDS011;29273;49.962;9.768;2022-12-05T08:39:32;5.72;;;4.18;;
38779;SDS011;29273;49.962;9.768;2022-12-05T08:41:57;5.95;;;4.18;;
38779;SDS011;29273;49.962;9.768;2022-12-05T08:44:23;6.07;;;4.22;;
38779;SDS011;29273;49.962;9.768;2022-12-05T08:46:49;7.20;;;4.97;;
38779;SDS011;29273;49.962;9.768;2022-12-05T08:49:15;6.32;;;4.82;;
38779;SDS011;29273;49.962;9.768;2022-12-05T08:51:41;7.25;;;4.90;;
38779;SDS011;29273;49.962;9.768;2022-12-05T08:54:08;7.03;;;5.15;;
38779;SDS011;29273;49.962;9.768;2022-12-05T08:56:33;7.22;;;5.18;;
38779;SDS011;29273;49.962;9.768;2022-12-05T08:58:59;5.05;;;4.07;;
38779;SDS011;29273;49.962;9.768;2022-12-05T09:01:26;7.45;;;5.07;;
38779;SDS011;29273;49.962;9.768;2022-12-05T09:03:56;6.40;;;4.55;;
38779;SDS011;29273;49.962;9.768;2022-12-05T09:06:23;6.18;;;4.57;;
38779;SDS011;29273;49.962;9.768;2022-12-05T09:08:53;4.93;;;3.80;;
38779;SDS011;29273;49.962;9.768;2022-12-05T09:11:28;4.93;;;3.95;;
38779;SDS011;29273;49.962;9.768;2022-12-05T09:13:56;4.65;;;3.55;;
38779;SDS011;29273;49.962;9.768;2022-12-05T09:16:24;5.20;;;3.85;;
38779;SDS011;29273;49.962;9.768;2022-12-05T09:18:53;5.93;;;3.75;;
38779;SDS011;29273;49.962;9.768;2022-12-05T09:21:21;4.82;;;3.83;;
38779;SDS011;29273;49.962;9.768;2022-12-05T09:23:49;5.05;;;3.60;;
38779;SDS011;29273;49.962;9.768;2022-12-05T09:26:16;4.15;;;3.40;;
38779;SDS011;29273;49.962;9.768;2022-12-05T09:28:44;5.18;;;3.75;;
38779;SDS011;29273;49.962;9.768;2022-12-05T09:31:11;4.18;;;3.58;;
38779;SDS011;29273;49.962;9.768;2022-12-05T09:33:42;4.22;;;3.55;;
38779;SDS011;29273;49.962;9.768;2022-12-05T09:36:11;4.85;;;3.53;;
38779;SDS011;29273;49.962;9.768;2022-12-05T09:38:42;4.72;;;3.85;;
38779;SDS011;29273;49.962;9.768;2022-12-05T09:41:12;4.50;;;3.33;;
38779;SDS011;29273;49.962;9.768;2022-12-05T09:48:50;4.22;;;3.13;;
38779;SDS011;29273;49.962;9.768;2022-12-05T09:51:16;3.75;;;3.35;;
38779;SDS011;29273;49.962;9.768;2022-12-05T09:53:42;4.93;;;3.60;;
38779;SDS011;29273;49.962;9.768;2022-12-05T09:56:20;4.70;;;3.60;;
38779;SDS011;29273;49.962;9.768;2022-12-05T09:58:47;4.18;;;3.38;;
38779;SDS011;29273;49.962;9.768;2022-12-05T10:07:12;4.03;;;3.10;;
38779;SDS011;29273;49.962;9.768;2022-12-05T10:13:06;4.30;;;3.05;;
38779;SDS011;29273;49.962;9.768;2022-12-05T10:15:37;3.67;;;3.20;;
38779;SDS011;29273;49.962;9.768;2022-12-05T10:20:59;3.72;;;3.30;;
38779;SDS011;29273;49.962;9.768;2022-12-05T10:26:23;4.28;;;3.20;;
38779;SDS011;29273;49.962;9.768;2022-12-05T10:35:13;3.53;;;2.80;;
38779;SDS011;29273;49.962;9.768;2022-12-05T10:37:53;4.35;;;2.72;;
38779;SDS011;29273;49.962;9.768;2022-12-05T10:40:21;3.35;;;2.67;;
38779;SDS011;29273;49.962;9.768;2022-12-05T10:42:47;4.45;;;3.50;;
38779;SDS011;29273;49.962;9.768;2022-12-05T10:45:21;4.18;;;3.40;;
38779;SDS011;29273;49.962;9.768;2022-12-05T10:47:48;3.95;;;3.25;;
38779;SDS011;29273;49.962;9.768;2022-12-05T10:50:19;4.30;;;3.40;;
38779;SDS011;29273;49.962;9.768;2022-12-05T10:52:48;4.15;;;3.33;;
38779;SDS011;29273;49.962;9.768;2022-12-05T10:55:16;4.53;;;3.40;;
38779;SDS011;29273;49.962;9.768;2022-12-05T10:57:43;4.22;;;3.45;;
38779;SDS011;29273;49.962;9.768;2022-12-05T11:00:15;4.20;;;3.00;;
38779;SDS011;29273;49.962;9.768;2022-12-05T11:02:46;3.75;;;3.13;;
38779;SDS011;29273;49.962;9.768;2022-12-05T11:05:12;4.28;;;3.38;;
38779;SDS011;29273;49.962;9.768;2022-12-05T11:07:45;4.00;;;3.10;;
38779;SDS011;29273;49.962;9.768;2022-12-05T11:10:47;3.63;;;2.90;;
38779;SDS011;29273;49.962;9.768;2022-12-05T11:13:22;3.67;;;3.00;;
38779;SDS011;29273;49.962;9.768;2022-12-05T11:15:49;4.40;;;3.50;;
38779;SDS011;29273;49.962;9.768;2022-12-05T11:18:24;4.47;;;3.40;;
38779;SDS011;29273;49.962;9.768;2022-12-05T11:20:56;3.60;;;2.90;;
38779;SDS011;29273;49.962;9.768;2022-12-05T11:23:33;3.70;;;3.20;;
38779;SDS011;29273;49.962;9.768;2022-12-05T11:25:58;3.70;;;3.08;;
38779;SDS011;29273;49.962;9.768;2022-12-05T11:28:28;4.68;;;3.47;;
38779;SDS011;29273;49.962;9.768;2022-12-05T11:33:23;4.20;;;3.47;;
38779;SDS011;29273;49.962;9.768;2022-12-05T11:35:54;3.67;;;3.17;;
38779;SDS011;29273;49.962;9.768;2022-12-05T11:38:25;4.40;;;3.30;;
38779;SDS011;29273;49.962;9.768;2022-12-05T11:41:14;3.92;;;3.05;;
38779;SDS011;29273;49.962;9.768;2022-12-05T11:43:54;3.35;;;2.85;;
38779;SDS011;29273;49.962;9.768;2022-12-05T11:55:28;3.72;;;3.00;;
38779;SDS011;29273;49.962;9.768;2022-12-05T12:06:21;3.72;;;3.00;;
38779;SDS011;29273;49.962;9.768;2022-12-05T12:11:51;4.65;;;3.30;;
38779;SDS011;29273;49.962;9.768;2022-12-05T12:25:32;4.47;;;3.40;;
38779;SDS011;29273;49.962;9.768;2022-12-05T12:33:22;5.15;;;3.63;;
38779;SDS011;29273;49.962;9.768;2022-12-05T12:35:55;4.18;;;2.80;;
38779;SDS011;29273;49.962;9.768;2022-12-05T12:44:06;4.18;;;3.15;;
38779;SDS011;29273;49.962;9.768;2022-12-05T12:47:00;4.28;;;3.25;;
38779;SDS011;29273;49.962;9.768;2022-12-05T12:52:15;3.60;;;2.72;;
38779;SDS011;29273;49.962;9.768;2022-12-05T12:57:38;5.10;;;3.30;;
38779;SDS011;29273;49.962;9.768;2022-12-05T13:03:19;4.03;;;2.92;;
38779;SDS011;29273;49.962;9.768;2022-12-05T13:05:53;4.40;;;3.20;;
38779;SDS011;29273;49.962;9.768;2022-12-05T13:08:34;5.10;;;3.58;;
38779;SDS011;29273;49.962;9.768;2022-12-05T13:11:07;4.40;;;3.40;;
38779;SDS011;29273;49.962;9.768;2022-12-05T13:13:44;7.43;;;4.03;;
38779;SDS011;29273;49.962;9.768;2022-12-05T13:16:48;4.18;;;3.13;;
38779;SDS011;29273;49.962;9.768;2022-12-05T13:19:23;3.88;;;3.33;;
38779;SDS011;29273;49.962;9.768;2022-12-05T13:21:53;4.38;;;3.42;;
38779;SDS011;29273;49.962;9.768;2022-12-05T13:24:23;5.35;;;3.67;;
38779;SDS011;29273;49.962;9.768;2022-12-05T13:26:50;5.80;;;3.65;;
38779;SDS011;29273;49.962;9.768;2022-12-05T13:29:18;4.88;;;3.25;;
38779;SDS011;29273;49.962;9.768;2022-12-05T13:31:54;4.43;;;3.50;;
38779;SDS011;29273;49.962;9.768;2022-12-05T13:36:51;4.22;;;3.40;;
38779;SDS011;29273;49.962;9.768;2022-12-05T13:39:37;3.95;;;3.40;;
38779;SDS011;29273;49.962;9.768;2022-12-05T13:42:23;4.78;;;3.80;;
38779;SDS011;29273;49.962;9.768;2022-12-05T13:44:57;5.90;;;4.03;;
38779;SDS011;29273;49.962;9.768;2022-12-05T13:47:30;3.78;;;3.25;;
38779;SDS011;29273;49.962;9.768;2022-12-05T13:50:02;4.75;;;3.60;;
38779;SDS011;29273;49.962;9.768;2022-12-05T13:52:42;5.65;;;3.70;;
38779;SDS011;29273;49.962;9.768;2022-12-05T13:57:51;4.40;;;3.28;;
38779;SDS011;29273;49.962;9.768;2022-12-05T14:00:21;3.80;;;3.03;;
38779;SDS011;29273;49.962;9.768;2022-12-05T14:02:51;4.03;;;3.20;;
38779;SDS011;29273;49.962;9.768;2022-12-05T14:10:13;3.75;;;3.25;;
38779;SDS011;29273;49.962;9.768;2022-12-05T14:15:41;3.80;;;3.22;;
38779;SDS011;29273;49.962;9.768;2022-12-05T14:24:20;4.28;;;3.22;;
38779;SDS011;29273;49.962;9.768;2022-12-05T14:27:06;4.22;;;3.35;;
38779;SDS011;29273;49.962;9.768;2022-12-05T14:32:39;3.38;;;2.92;;
38779;SDS011;29273;49.962;9.768;2022-12-05T14:35:16;3.47;;;3.08;;
38779;SDS011;29273;49.962;9.768;2022-12-05T14:37:52;4.88;;;3.58;;
38779;SDS011;29273;49.962;9.768;2022-12-05T14:40:31;5.05;;;3.90;;
38779;SDS011;29273;49.962;9.768;2022-12-05T14:43:03;3.97;;;3.15;;
38779;SDS011;29273;49.962;9.768;2022-12-05T14:45:34;4.45;;;3.78;;
38779;SDS011;29273;49.962;9.768;2022-12-05T14:48:04;5.00;;;3.85;;
38779;SDS011;29273;49.962;9.768;2022-12-05T14:50:54;4.97;;;3.63;;
38779;SDS011;29273;49.962;9.768;2022-12-05T14:53:39;5.22;;;3.83;;
38779;SDS011;29273;49.962;9.768;2022-12-05T14:56:19;4.53;;;3.22;;
38779;SDS011;29273;49.962;9.768;2022-12-05T14:58:49;5.47;;;3.33;;
38779;SDS011;29273;49.962;9.768;2022-12-05T15:01:26;4.82;;;3.70;;
38779;SDS011;29273;49.962;9.768;2022-12-05T15:04:13;4.78;;;3.92;;
38779;SDS011;29273;49.962;9.768;2022-12-05T15:12:15;4.80;;;3.67;;
38779;SDS011;29273;49.962;9.768;2022-12-05T15:14:52;4.53;;;3.55;;
38779;SDS011;29273;49.962;9.768;2022-12-05T15:17:26;4.47;;;3.55;;
38779;SDS011;29273;49.962;9.768;2022-12-05T15:20:10;4.65;;;3.72;;
38779;SDS011;29273;49.962;9.768;2022-12-05T15:22:41;4.22;;;3.30;;
38779;SDS011;29273;49.962;9.768;2022-12-05T15:25:40;4.50;;;3.22;;
38779;SDS011;29273;49.962;9.768;2022-12-05T15:28:03;5.32;;;4.00;;
38779;SDS011;29273;49.962;9.768;2022-12-05T15:30:31;4.97;;;3.80;;
38779;SDS011;29273;49.962;9.768;2022-12-05T15:33:00;4.38;;;3.17;;
38779;SDS011;29273;49.962;9.768;2022-12-05T15:35:27;4.18;;;3.15;;
38779;SDS011;29273;49.962;9.768;2022-12-05T15:37:58;3.35;;;2.83;;
38779;SDS011;29273;49.962;9.768;2022-12-05T15:40:31;4.75;;;3.45;;
38779;SDS011;29273;49.962;9.768;2022-12-05T15:43:01;4.28;;;3.28;;
38779;SDS011;29273;49.962;9.768;2022-12-05T15:48:50;4.47;;;3.38;;
38779;SDS011;29273;49.962;9.768;2022-12-05T15:51:17;4.47;;;3.55;;
38779;SDS011;29273;49.962;9.768;2022-12-05T15:53:50;4.40;;;3.50;;
38779;SDS011;29273;49.962;9.768;2022-12-05T15:56:22;5.65;;;3.58;;
38779;SDS011;29273;49.962;9.768;2022-12-05T16:01:39;4.32;;;3.22;;
38779;SDS011;29273;49.962;9.768;2022-12-05T16:06:44;4.10;;;3.05;;
38779;SDS011;29273;49.962;9.768;2022-12-05T16:09:15;3.97;;;3.15;;
38779;SDS011;29273;49.962;9.768;2022-12-05T16:11:49;4.40;;;3.25;;
38779;SDS011;29273;49.962;9.768;2022-12-05T16:14:18;3.83;;;3.30;;
38779;SDS011;29273;49.962;9.768;2022-12-05T16:16:46;3.83;;;3.00;;
38779;SDS011;29273;49.962;9.768;2022-12-05T16:19:16;3.78;;;3.00;;
38779;SDS011;29273;49.962;9.768;2022-12-05T16:21:47;3.90;;;2.90;;
38779;SDS011;29273;49.962;9.768;2022-12-05T16:24:44;4.07;;;3.20;;
38779;SDS011;29273;49.962;9.768;2022-12-05T16:27:13;4.85;;;3.30;;
38779;SDS011;29273;49.962;9.768;2022-12-05T16:29:41;4.55;;;3.13;;
38779;SDS011;29273;49.962;9.768;2022-12-05T16:32:18;4.20;;;3.38;;
38779;SDS011;29273;49.962;9.768;2022-12-05T16:34:47;3.95;;;3.00;;
38779;SDS011;29273;49.962;9.768;2022-12-05T16:37:23;3.83;;;3.13;;
38779;SDS011;29273;49.962;9.768;2022-12-05T16:39:51;3.97;;;3.10;;
38779;SDS011;29273;49.962;9.768;2022-12-05T16:42:21;4.10;;;3.38;;
38779;SDS011;29273;49.962;9.768;2022-12-05T16:44:53;5.07;;;3.45;;
38779;SDS011;29273;49.962;9.768;2022-12-05T16:47:25;4.32;;;3.33;;
38779;SDS011;29273;49.962;9.768;2022-12-05T16:52:46;3.72;;;2.92;;
38779;SDS011;29273;49.962;9.768;2022-12-05T16:55:12;4.75;;;3.42;;
38779;SDS011;29273;49.962;9.768;2022-12-05T16:57:38;4.45;;;3.38;;
38779;SDS011;29273;49.962;9.768;2022-12-05T17:00:04;5.85;;;3.90;;
38779;SDS011;29273;49.962;9.768;2022-12-05T17:02:31;3.95;;;3.03;;
38779;SDS011;29273;49.962;9.768;2022-12-05T17:04:57;4.78;;;3.03;;
38779;SDS011;29273;49.962;9.768;2022-12-05T17:07:26;3.90;;;3.08;;
38779;SDS011;29273;49.962;9.768;2022-12-05T17:09:52;3.97;;;3.17;;
38779;SDS011;29273;49.962;9.768;2022-12-05T17:12:20;3.90;;;2.88;;
38779;SDS011;29273;49.962;9.768;2022-12-05T17:14:48;4.57;;;3.42;;
38779;SDS011;29273;49.962;9.768;2022-12-05T17:17:14;4.55;;;3.35;;
38779;SDS011;29273;49.962;9.768;2022-12-05T17:19:40;4.28;;;3.28;;
38779;SDS011;29273;49.962;9.768;2022-12-05T17:22:06;3.88;;;3.20;;
38779;SDS011;29273;49.962;9.768;2022-12-05T17:24:31;4.40;;;3.22;;
38779;SDS011;29273;49.962;9.768;2022-12-05T17:26:57;3.72;;;3.03;;
38779;SDS011;29273;49.962;9.768;2022-12-05T17:29:23;3.80;;;3.03;;
38779;SDS011;29273;49.962;9.768;2022-12-05T17:31:48;4.38;;;3.20;;
38779;SDS011;29273;49.962;9.768;2022-12-05T17:34:14;3.80;;;3.28;;
38779;SDS011;29273;49.962;9.768;2022-12-05T17:36:41;4.20;;;3.03;;
38779;SDS011;29273;49.962;9.768;2022-12-05T17:39:08;4.47;;;3.33;;
38779;SDS011;29273;49.962;9.768;2022-12-05T17:41:33;4.72;;;3.35;;